createdAt,value
2016-10-19T00:00:47.649Z,0
2016-10-19T00:01:47.690Z,0
2016-10-19T00:02:47.640Z,0
2016-10-19T00:03:47.639Z,0
2016-10-19T00:04:47.629Z,0
2016-10-19T00:05:47.598Z,0
2016-10-19T00:06:47.565Z,0
2016-10-19T00:07:47.587Z,0
2016-10-19T00:08:47.584Z,0
2016-10-19T00:09:47.559Z,0
2016-10-19T00:10:47.591Z,0
2016-10-19T00:11:47.451Z,0
2016-10-19T00:12:47.469Z,0
2016-10-19T00:13:47.657Z,0
2016-10-19T00:14:47.492Z,0
2016-10-19T00:15:47.419Z,0
2016-10-19T00:16:47.361Z,0
2016-10-19T00:17:47.428Z,0
2016-10-19T00:18:47.396Z,0
2016-10-19T00:19:47.353Z,0
2016-10-19T00:20:47.326Z,0
2016-10-19T00:21:47.365Z,0
2016-10-19T00:22:47.277Z,0
2016-10-19T00:23:47.505Z,0
2016-10-19T00:24:47.269Z,0
2016-10-19T00:25:47.236Z,0
2016-10-19T00:26:47.285Z,0
2016-10-19T00:27:47.223Z,0
2016-10-19T00:28:47.171Z,0
2016-10-19T00:29:47.179Z,0
2016-10-19T00:30:47.195Z,0
2016-10-19T00:31:47.143Z,0
2016-10-19T00:32:47.143Z,0
2016-10-19T00:33:47.093Z,0
2016-10-19T00:34:47.057Z,0
2016-10-19T00:35:47.065Z,0
2016-10-19T00:36:47.047Z,0
2016-10-19T00:37:47.046Z,0
2016-10-19T00:38:47.077Z,0
2016-10-19T00:39:46.998Z,0
2016-10-19T00:40:47.005Z,0
2016-10-19T00:41:46.987Z,0
2016-10-19T00:42:46.926Z,0
2016-10-19T00:43:46.912Z,0
2016-10-19T00:44:46.888Z,0
2016-10-19T00:45:46.898Z,0
2016-10-19T00:46:46.886Z,0
2016-10-19T00:47:46.869Z,0
2016-10-19T00:48:46.799Z,0
2016-10-19T00:49:46.804Z,0
2016-10-19T00:50:46.773Z,0
2016-10-19T00:51:46.833Z,0
2016-10-19T00:52:46.766Z,0
2016-10-19T00:53:46.746Z,0
2016-10-19T00:54:46.751Z,0
2016-10-19T00:55:46.709Z,0
2016-10-19T00:56:46.739Z,0
2016-10-19T00:57:46.669Z,0
2016-10-19T00:58:46.692Z,0
2016-10-19T00:59:46.660Z,0
2016-10-19T01:00:46.921Z,0
2016-10-19T01:01:46.641Z,0
2016-10-19T01:02:46.601Z,0
2016-10-19T01:03:46.536Z,0
2016-10-19T01:04:46.590Z,0
2016-10-19T01:05:46.542Z,0
2016-10-19T01:06:46.545Z,0
2016-10-19T01:07:46.535Z,0
2016-10-19T01:08:46.466Z,0
2016-10-19T01:09:46.781Z,0
2016-10-19T01:10:46.518Z,0
2016-10-19T01:11:46.490Z,0
2016-10-19T01:12:46.434Z,0
2016-10-19T01:13:46.452Z,0
2016-10-19T01:14:46.494Z,0
2016-10-19T01:15:46.394Z,0
2016-10-19T01:16:46.355Z,0
2016-10-19T01:17:46.319Z,0
2016-10-19T01:18:46.326Z,0
2016-10-19T01:19:46.316Z,0
2016-10-19T01:20:46.290Z,0
2016-10-19T01:21:46.316Z,0
2016-10-19T01:22:46.309Z,0
2016-10-19T01:23:46.248Z,0
2016-10-19T01:24:46.253Z,0
2016-10-19T01:25:46.198Z,0
2016-10-19T01:26:46.191Z,0
2016-10-19T01:27:46.168Z,0
2016-10-19T01:28:46.112Z,0
2016-10-19T01:29:46.100Z,0
2016-10-19T01:30:46.104Z,0
2016-10-19T01:31:46.181Z,0
2016-10-19T01:32:46.105Z,0
2016-10-19T01:33:46.063Z,0
2016-10-19T01:34:46.045Z,0
2016-10-19T01:35:46.041Z,0
2016-10-19T01:36:46.018Z,0
2016-10-19T01:37:45.977Z,0
2016-10-19T01:38:46.012Z,0
2016-10-19T01:39:45.982Z,0
2016-10-19T01:40:46.002Z,0
2016-10-19T01:41:45.918Z,0
2016-10-19T01:42:45.967Z,0
2016-10-19T01:43:45.877Z,0
2016-10-19T01:44:45.875Z,0
2016-10-19T01:45:45.841Z,0
2016-10-19T01:46:45.841Z,0
2016-10-19T01:47:45.843Z,0
2016-10-19T01:48:45.788Z,0
2016-10-19T01:49:45.805Z,0
2016-10-19T01:50:45.848Z,0
2016-10-19T01:51:45.855Z,0
2016-10-19T01:52:45.704Z,0
2016-10-19T01:53:45.759Z,0
2016-10-19T01:54:45.713Z,0
2016-10-19T01:55:45.705Z,0
2016-10-19T01:56:45.630Z,0
2016-10-19T01:57:45.657Z,0
2016-10-19T01:58:45.712Z,0
2016-10-19T01:59:45.649Z,0
2016-10-19T02:00:45.600Z,0
2016-10-19T02:01:45.572Z,0
2016-10-19T02:02:45.583Z,0
2016-10-19T02:03:45.551Z,0
2016-10-19T02:04:45.544Z,0
2016-10-19T02:05:45.527Z,0
2016-10-19T02:06:45.816Z,0
2016-10-19T02:07:45.489Z,0
2016-10-19T02:08:45.785Z,0
2016-10-19T02:09:45.523Z,0
2016-10-19T02:10:45.406Z,0
2016-10-19T02:11:45.435Z,0
2016-10-19T02:12:45.400Z,0
2016-10-19T02:13:45.382Z,0
2016-10-19T02:14:45.414Z,0
2016-10-19T02:15:45.354Z,0
2016-10-19T02:16:45.312Z,0
2016-10-19T02:17:45.325Z,0
2016-10-19T02:18:45.387Z,0
2016-10-19T02:19:45.268Z,0
2016-10-19T02:20:45.305Z,0
2016-10-19T02:21:45.250Z,0
2016-10-19T02:22:45.187Z,0
2016-10-19T02:23:45.215Z,0
2016-10-19T02:24:45.222Z,0
2016-10-19T02:25:45.158Z,0
2016-10-19T02:26:45.172Z,0
2016-10-19T02:27:45.135Z,0
2016-10-19T02:28:45.131Z,0
2016-10-19T02:29:45.074Z,0
2016-10-19T02:30:45.110Z,0
2016-10-19T02:31:45.134Z,0
2016-10-19T02:32:45.053Z,0
2016-10-19T02:33:45.088Z,0
2016-10-19T02:34:45.011Z,0
2016-10-19T02:35:45.017Z,0
2016-10-19T02:36:44.971Z,0
2016-10-19T02:37:45.066Z,0
2016-10-19T02:38:44.979Z,0
2016-10-19T02:39:44.935Z,0
2016-10-19T02:40:44.896Z,0
2016-10-19T02:41:44.937Z,0
2016-10-19T02:42:44.918Z,0
2016-10-19T02:43:44.883Z,0
2016-10-19T02:44:44.890Z,0
2016-10-19T02:45:44.883Z,0
2016-10-19T02:46:44.798Z,0
2016-10-19T02:47:44.821Z,0
2016-10-19T02:48:44.847Z,0
2016-10-19T02:49:44.748Z,0
2016-10-19T02:50:44.733Z,0
2016-10-19T02:51:44.757Z,0
2016-10-19T02:52:44.732Z,0
2016-10-19T02:53:44.697Z,0
2016-10-19T02:54:44.700Z,0
2016-10-19T02:55:44.670Z,0
2016-10-19T02:56:44.652Z,0
2016-10-19T02:57:44.616Z,0
2016-10-19T02:58:44.616Z,0
2016-10-19T02:59:44.641Z,0
2016-10-19T03:00:44.554Z,0
2016-10-19T03:01:44.600Z,0
2016-10-19T03:02:44.560Z,0
2016-10-19T03:03:44.538Z,0
2016-10-19T03:04:44.553Z,0
2016-10-19T03:05:44.525Z,0
2016-10-19T03:06:44.475Z,0
2016-10-19T03:07:44.448Z,0
2016-10-19T03:08:44.462Z,0
2016-10-19T03:09:44.375Z,0
2016-10-19T03:10:44.386Z,0
2016-10-19T03:11:44.364Z,0
2016-10-19T03:12:44.347Z,0
2016-10-19T03:13:44.369Z,0
2016-10-19T03:14:44.361Z,0
2016-10-19T03:15:44.331Z,0
2016-10-19T03:16:44.340Z,0
2016-10-19T03:17:44.288Z,0
2016-10-19T03:18:44.280Z,0
2016-10-19T03:19:44.253Z,0
2016-10-19T03:20:44.250Z,0
2016-10-19T03:21:44.494Z,0
2016-10-19T03:22:44.170Z,0
2016-10-19T03:23:44.186Z,0
2016-10-19T03:24:44.120Z,0
2016-10-19T03:25:44.167Z,0
2016-10-19T03:26:44.138Z,0
2016-10-19T03:27:44.091Z,0
2016-10-19T03:28:44.085Z,0
2016-10-19T03:29:44.407Z,0
2016-10-19T03:30:44.100Z,0
2016-10-19T03:31:44.012Z,0
2016-10-19T03:32:44.052Z,0
2016-10-19T03:33:44.031Z,0
2016-10-19T03:34:44.021Z,0
2016-10-19T03:35:43.997Z,0
2016-10-19T03:36:43.979Z,0
2016-10-19T03:37:44.159Z,0
2016-10-19T03:38:43.925Z,0
2016-10-19T03:39:43.927Z,0
2016-10-19T03:40:43.886Z,0
2016-10-19T03:41:43.831Z,0
2016-10-19T03:42:43.874Z,0
2016-10-19T03:43:43.846Z,0
2016-10-19T03:44:43.870Z,0
2016-10-19T03:45:43.784Z,0
2016-10-19T03:46:43.778Z,0
2016-10-19T03:47:43.768Z,0
2016-10-19T03:48:43.776Z,0
2016-10-19T03:49:43.710Z,0
2016-10-19T03:50:43.770Z,0
2016-10-19T03:51:43.684Z,0
2016-10-19T03:52:43.726Z,0
2016-10-19T03:53:43.639Z,0
2016-10-19T03:54:43.659Z,0
2016-10-19T03:55:43.597Z,0
2016-10-19T03:56:43.671Z,0
2016-10-19T03:57:43.585Z,0
2016-10-19T03:58:43.569Z,0
2016-10-19T03:59:43.533Z,0
2016-10-19T04:00:43.527Z,0
2016-10-19T04:01:43.504Z,0
2016-10-19T04:02:43.546Z,0
2016-10-19T04:03:43.497Z,0
2016-10-19T04:04:43.441Z,0
2016-10-19T04:05:43.460Z,0
2016-10-19T04:06:43.466Z,0
2016-10-19T04:07:43.443Z,0
2016-10-19T04:08:43.395Z,0
2016-10-19T04:09:43.405Z,0
2016-10-19T04:10:43.348Z,0
2016-10-19T04:11:43.346Z,0
2016-10-19T04:12:43.351Z,0
2016-10-19T04:13:43.383Z,0
2016-10-19T04:14:43.290Z,0
2016-10-19T04:15:43.259Z,0
2016-10-19T04:16:43.258Z,0
2016-10-19T04:17:43.258Z,0
2016-10-19T04:18:43.236Z,0
2016-10-19T04:19:43.235Z,0
2016-10-19T04:20:43.209Z,0
2016-10-19T04:21:43.253Z,0
2016-10-19T04:22:43.130Z,0
2016-10-19T04:23:43.099Z,0
2016-10-19T04:24:43.120Z,0
2016-10-19T04:25:43.115Z,0
2016-10-19T04:26:43.414Z,0
2016-10-19T04:27:43.068Z,0
2016-10-19T04:28:43.057Z,0
2016-10-19T04:29:43.030Z,0
2016-10-19T04:30:43.021Z,0
2016-10-19T04:31:42.994Z,0
2016-10-19T04:32:43.037Z,0
2016-10-19T04:33:42.983Z,0
2016-10-19T04:34:43.257Z,0
2016-10-19T04:35:42.910Z,0
2016-10-19T04:36:43.246Z,0
2016-10-19T04:37:42.871Z,0
2016-10-19T04:38:42.899Z,0
2016-10-19T04:39:43.202Z,0
2016-10-19T04:40:42.853Z,0
2016-10-19T04:41:42.822Z,0
2016-10-19T04:42:42.812Z,0
2016-10-19T04:43:42.825Z,0
2016-10-19T04:44:42.760Z,0
2016-10-19T04:45:42.786Z,0
2016-10-19T04:46:42.778Z,0
2016-10-19T04:47:42.714Z,0
2016-10-19T04:48:42.723Z,0
2016-10-19T04:49:42.726Z,0
2016-10-19T04:50:42.698Z,0
2016-10-19T04:51:42.659Z,0
2016-10-19T04:52:42.612Z,0
2016-10-19T04:53:42.648Z,0
2016-10-19T04:54:42.611Z,0
2016-10-19T04:55:42.543Z,0
2016-10-19T04:56:42.561Z,0
2016-10-19T04:57:42.524Z,0
2016-10-19T04:58:42.517Z,0
2016-10-19T04:59:42.543Z,0
2016-10-19T05:00:42.489Z,0
2016-10-19T05:01:42.491Z,0
2016-10-19T05:02:42.501Z,0
2016-10-19T05:03:42.469Z,0
2016-10-19T05:04:42.484Z,0
2016-10-19T05:05:42.416Z,0
2016-10-19T05:06:42.378Z,0
2016-10-19T05:07:42.380Z,0
2016-10-19T05:08:42.385Z,0
2016-10-19T05:09:42.324Z,0
2016-10-19T05:10:42.321Z,0
2016-10-19T05:11:42.316Z,0
2016-10-19T05:12:42.291Z,0
2016-10-19T05:13:42.265Z,0
2016-10-19T05:14:42.237Z,0
2016-10-19T05:15:42.245Z,0
2016-10-19T05:16:42.267Z,0
2016-10-19T05:17:42.216Z,0
2016-10-19T05:18:42.224Z,0
2016-10-19T05:19:42.196Z,0
2016-10-19T05:20:42.155Z,0
2016-10-19T05:21:42.168Z,0
2016-10-19T05:22:42.150Z,0
2016-10-19T05:23:42.077Z,0
2016-10-19T05:24:42.064Z,0
2016-10-19T05:25:42.134Z,0
2016-10-19T05:26:42.078Z,0
2016-10-19T05:27:42.054Z,0
2016-10-19T05:28:42.039Z,0
2016-10-19T05:29:42.032Z,0
2016-10-19T05:30:42.027Z,0
2016-10-19T05:31:41.981Z,0
2016-10-19T05:32:41.977Z,0
2016-10-19T05:33:41.959Z,0
2016-10-19T05:34:41.953Z,0
2016-10-19T05:35:41.907Z,0
2016-10-19T05:36:41.925Z,0
2016-10-19T05:37:41.834Z,0
2016-10-19T05:38:41.841Z,0
2016-10-19T05:39:42.177Z,0
2016-10-19T05:40:41.837Z,0
2016-10-19T05:41:41.800Z,0
2016-10-19T05:42:41.781Z,0
2016-10-19T05:43:41.801Z,0
2016-10-19T05:44:41.796Z,0
2016-10-19T05:45:41.779Z,0
2016-10-19T05:46:41.750Z,0
2016-10-19T05:47:41.718Z,0
2016-10-19T05:48:41.687Z,0
2016-10-19T05:49:41.702Z,0
2016-10-19T05:50:41.659Z,0
2016-10-19T05:51:41.653Z,5
2016-10-19T05:52:41.611Z,5
2016-10-19T05:53:41.610Z,5
2016-10-19T05:54:41.622Z,5
2016-10-19T05:55:41.560Z,5
2016-10-19T05:56:41.563Z,5
2016-10-19T05:57:41.540Z,5
2016-10-19T05:58:41.512Z,5
2016-10-19T05:59:41.529Z,5
2016-10-19T06:00:41.537Z,5
2016-10-19T06:01:42.092Z,5
2016-10-19T06:02:41.493Z,5
2016-10-19T06:03:41.493Z,5
2016-10-19T06:04:41.447Z,5
2016-10-19T06:05:41.431Z,5
2016-10-19T06:06:41.407Z,5
2016-10-19T06:07:41.403Z,10
2016-10-19T06:08:41.372Z,10
2016-10-19T06:09:41.353Z,10
2016-10-19T06:10:41.362Z,15
2016-10-19T06:11:41.350Z,15
2016-10-19T06:12:41.327Z,20
2016-10-19T06:13:41.327Z,20
2016-10-19T06:14:41.245Z,25
2016-10-19T06:15:41.292Z,25
2016-10-19T06:16:41.232Z,25
2016-10-19T06:17:41.221Z,25
2016-10-19T06:18:41.182Z,25
2016-10-19T06:19:41.192Z,30
2016-10-19T06:20:41.180Z,30
2016-10-19T06:21:41.160Z,35
2016-10-19T06:22:41.153Z,35
2016-10-19T06:23:41.122Z,35
2016-10-19T06:24:41.121Z,35
2016-10-19T06:25:41.093Z,40
2016-10-19T06:26:41.084Z,40
2016-10-19T06:27:41.074Z,45
2016-10-19T06:28:41.073Z,45
2016-10-19T06:29:40.969Z,45
2016-10-19T06:30:40.980Z,50
2016-10-19T06:31:40.975Z,50
2016-10-19T06:32:40.947Z,45
2016-10-19T06:33:40.934Z,50
2016-10-19T06:34:40.964Z,45
2016-10-19T06:35:40.882Z,45
2016-10-19T06:36:40.896Z,45
2016-10-19T06:37:40.848Z,50
2016-10-19T06:38:40.863Z,55
2016-10-19T06:39:40.838Z,55
2016-10-19T06:40:40.819Z,55
2016-10-19T06:41:40.819Z,55
2016-10-19T06:42:40.814Z,55
2016-10-19T06:43:40.758Z,55
2016-10-19T06:44:40.723Z,60
2016-10-19T06:45:40.742Z,60
2016-10-19T06:46:40.690Z,60
2016-10-19T06:47:40.726Z,60
2016-10-19T06:48:40.692Z,60
2016-10-19T06:49:40.660Z,60
2016-10-19T06:50:40.597Z,60
2016-10-19T06:51:40.644Z,60
2016-10-19T06:52:40.609Z,60
2016-10-19T06:53:40.571Z,65
2016-10-19T06:54:40.633Z,65
2016-10-19T06:55:40.568Z,60
2016-10-19T06:56:40.565Z,55
2016-10-19T06:57:40.497Z,50
2016-10-19T06:58:40.530Z,45
2016-10-19T06:59:40.516Z,40
2016-10-19T07:00:40.506Z,35
2016-10-19T07:01:40.467Z,35
2016-10-19T07:02:40.423Z,35
2016-10-19T07:03:40.454Z,35
2016-10-19T07:04:40.419Z,35
2016-10-19T07:05:40.413Z,30
2016-10-19T07:06:40.397Z,30
2016-10-19T07:07:40.384Z,35
2016-10-19T07:08:40.315Z,35
2016-10-19T07:09:40.325Z,35
2016-10-19T07:10:40.307Z,35
2016-10-19T07:11:40.263Z,35
2016-10-19T07:12:40.268Z,40
2016-10-19T07:13:40.289Z,40
2016-10-19T07:14:40.232Z,45
2016-10-19T07:15:40.193Z,50
2016-10-19T07:16:40.160Z,50
2016-10-19T07:17:40.161Z,50
2016-10-19T07:18:40.186Z,45
2016-10-19T07:19:40.120Z,45
2016-10-19T07:20:40.145Z,50
2016-10-19T07:21:40.127Z,50
2016-10-19T07:22:40.081Z,50
2016-10-19T07:23:40.053Z,55
2016-10-19T07:24:40.056Z,60
2016-10-19T07:25:40.026Z,60
2016-10-19T07:26:40.041Z,60
2016-10-19T07:27:40.011Z,65
2016-10-19T07:28:39.971Z,65
2016-10-19T07:29:39.948Z,65
2016-10-19T07:30:39.928Z,65
2016-10-19T07:31:39.941Z,65
2016-10-19T07:32:39.926Z,70
2016-10-19T07:33:39.861Z,70
2016-10-19T07:34:39.860Z,70
2016-10-19T07:35:39.856Z,65
2016-10-19T07:36:39.889Z,65
2016-10-19T07:37:39.825Z,70
2016-10-19T07:38:39.831Z,70
2016-10-19T07:39:39.774Z,70
2016-10-19T07:40:39.761Z,70
2016-10-19T07:41:39.752Z,70
2016-10-19T07:42:39.736Z,70
2016-10-19T07:43:39.714Z,65
2016-10-19T07:44:39.645Z,60
2016-10-19T07:45:39.661Z,65
2016-10-19T07:46:39.652Z,65
2016-10-19T07:47:39.710Z,60
2016-10-19T07:48:39.634Z,60
2016-10-19T07:49:39.602Z,60
2016-10-19T07:50:39.665Z,60
2016-10-19T07:51:39.571Z,55
2016-10-19T07:52:39.503Z,60
2016-10-19T07:53:39.512Z,65
2016-10-19T07:54:39.491Z,70
2016-10-19T07:55:39.485Z,75
2016-10-19T07:56:39.456Z,75
2016-10-19T07:57:39.471Z,80
2016-10-19T07:58:39.446Z,80
2016-10-19T07:59:39.424Z,85
2016-10-19T08:00:39.426Z,95
2016-10-19T08:01:39.393Z,95
2016-10-19T08:02:39.345Z,100
2016-10-19T08:03:39.366Z,100
2016-10-19T08:04:39.311Z,110
2016-10-19T08:05:39.289Z,105
2016-10-19T08:06:39.296Z,110
2016-10-19T08:07:39.267Z,115
2016-10-19T08:08:39.251Z,120
2016-10-19T08:09:39.191Z,120
2016-10-19T08:10:39.201Z,120
2016-10-19T08:11:39.208Z,115
2016-10-19T08:12:39.166Z,115
2016-10-19T08:13:39.158Z,125
2016-10-19T08:14:39.141Z,135
2016-10-19T08:15:39.128Z,140
2016-10-19T08:16:39.057Z,155
2016-10-19T08:17:39.239Z,165
2016-10-19T08:18:39.079Z,165
2016-10-19T08:19:39.078Z,155
2016-10-19T08:20:39.080Z,160
2016-10-19T08:21:39.029Z,180
2016-10-19T08:22:39.026Z,215
2016-10-19T08:23:38.983Z,205
2016-10-19T08:24:39.234Z,190
2016-10-19T08:25:38.945Z,160
2016-10-19T08:26:38.917Z,155
2016-10-19T08:27:38.884Z,175
2016-10-19T08:28:38.895Z,185
2016-10-19T08:29:38.873Z,180
2016-10-19T08:30:38.844Z,210
2016-10-19T08:31:38.828Z,220
2016-10-19T08:32:38.817Z,215
2016-10-19T08:33:38.800Z,660
2016-10-19T08:34:38.747Z,640
2016-10-19T08:35:38.759Z,660
2016-10-19T08:36:38.703Z,670
2016-10-19T08:37:38.702Z,655
2016-10-19T08:38:38.780Z,650
2016-10-19T08:39:38.649Z,635
2016-10-19T08:40:38.688Z,595
2016-10-19T08:41:38.600Z,620
2016-10-19T08:42:38.630Z,570
2016-10-19T08:43:38.611Z,555
2016-10-19T08:44:38.615Z,520
2016-10-19T08:45:38.553Z,475
2016-10-19T08:46:38.884Z,485
2016-10-19T08:47:38.545Z,540
2016-10-19T08:48:38.513Z,560
2016-10-19T08:49:38.448Z,520
2016-10-19T08:50:38.482Z,510
2016-10-19T08:51:38.432Z,540
2016-10-19T08:52:38.468Z,555
2016-10-19T08:53:38.410Z,545
2016-10-19T08:54:38.409Z,520
2016-10-19T08:55:38.394Z,515
2016-10-19T08:56:38.389Z,545
2016-10-19T08:57:38.333Z,565
2016-10-19T08:58:38.368Z,575
2016-10-19T08:59:38.307Z,600
2016-10-19T09:00:38.297Z,590
2016-10-19T09:01:38.305Z,555
2016-10-19T09:02:38.217Z,575
2016-10-19T09:03:38.506Z,625
2016-10-19T09:04:38.206Z,620
2016-10-19T09:05:38.222Z,635
2016-10-19T09:06:38.198Z,615
2016-10-19T09:07:38.189Z,610
2016-10-19T09:08:38.175Z,605
2016-10-19T09:09:38.167Z,640
2016-10-19T09:10:38.134Z,645
2016-10-19T09:11:38.067Z,650
2016-10-19T09:12:38.119Z,610
2016-10-19T09:13:38.007Z,595
2016-10-19T09:14:37.999Z,625
2016-10-19T09:15:38.061Z,625
2016-10-19T09:16:38.033Z,670
2016-10-19T09:17:37.999Z,705
2016-10-19T09:18:38.001Z,650
2016-10-19T09:19:37.964Z,640
2016-10-19T09:20:37.926Z,705
2016-10-19T09:21:37.911Z,760
2016-10-19T09:22:37.881Z,835
2016-10-19T09:23:37.867Z,845
2016-10-19T09:24:37.849Z,825
2016-10-19T09:25:37.814Z,770
2016-10-19T09:26:37.860Z,740
2016-10-19T09:27:37.816Z,690
2016-10-19T09:28:37.817Z,680
2016-10-19T09:29:37.732Z,695
2016-10-19T09:30:37.746Z,730
2016-10-19T09:31:37.775Z,840
2016-10-19T09:32:37.694Z,835
2016-10-19T09:33:37.713Z,830
2016-10-19T09:34:37.686Z,840
2016-10-19T09:35:37.717Z,850
2016-10-19T09:36:37.655Z,860
2016-10-19T09:37:37.661Z,805
2016-10-19T09:38:37.559Z,830
2016-10-19T09:39:37.575Z,840
2016-10-19T09:40:37.668Z,855
2016-10-19T09:41:37.559Z,910
2016-10-19T09:42:37.538Z,980
2016-10-19T09:43:37.488Z,1055
2016-10-19T09:44:37.528Z,1095
2016-10-19T09:45:37.480Z,1135
2016-10-19T09:46:37.460Z,1305
2016-10-19T09:47:37.455Z,1275
2016-10-19T09:48:37.437Z,1410
2016-10-19T09:49:37.447Z,1380
2016-10-19T09:50:37.402Z,1750
2016-10-19T09:51:37.381Z,2220
2016-10-19T09:52:37.342Z,2015
2016-10-19T09:53:37.366Z,1845
2016-10-19T09:54:37.287Z,2260
2016-10-19T09:55:37.325Z,2430
2016-10-19T09:56:37.272Z,2890
2016-10-19T09:57:37.273Z,2360
2016-10-19T09:58:37.233Z,2365
2016-10-19T09:59:37.248Z,2270
2016-10-19T10:00:37.217Z,2405
2016-10-19T10:01:37.189Z,2740
2016-10-19T10:02:37.200Z,2165
2016-10-19T10:03:37.194Z,1935
2016-10-19T10:04:37.182Z,2400
2016-10-19T10:05:37.114Z,2185
2016-10-19T10:06:37.129Z,2140
2016-10-19T10:07:37.062Z,2085
2016-10-19T10:08:37.068Z,2610
2016-10-19T10:09:37.030Z,2985
2016-10-19T10:10:37.018Z,3610
2016-10-19T10:11:37.029Z,3900
2016-10-19T10:12:36.984Z,2935
2016-10-19T10:13:37.033Z,3700
2016-10-19T10:14:36.999Z,2535
2016-10-19T10:15:36.955Z,1855
2016-10-19T10:16:36.951Z,2250
2016-10-19T10:17:36.930Z,2310
2016-10-19T10:18:36.923Z,2500
2016-10-19T10:19:36.900Z,2145
2016-10-19T10:20:36.891Z,2015
2016-10-19T10:21:36.869Z,2550
2016-10-19T10:22:36.831Z,2190
2016-10-19T10:23:36.800Z,1985
2016-10-19T10:24:36.804Z,1670
2016-10-19T10:25:36.774Z,1480
2016-10-19T10:26:36.801Z,1570
2016-10-19T10:27:36.812Z,1910
2016-10-19T10:28:36.730Z,1590
2016-10-19T10:29:36.746Z,1665
2016-10-19T10:30:36.737Z,1660
2016-10-19T10:31:36.701Z,1570
2016-10-19T10:32:36.689Z,1795
2016-10-19T10:33:36.687Z,1440
2016-10-19T10:34:36.637Z,1335
2016-10-19T10:35:36.661Z,1425
2016-10-19T10:36:36.639Z,1485
2016-10-19T10:37:36.567Z,1430
2016-10-19T10:38:36.549Z,1550
2016-10-19T10:39:36.806Z,1480
2016-10-19T10:40:36.558Z,1580
2016-10-19T10:41:36.549Z,1560
2016-10-19T10:42:36.543Z,1645
2016-10-19T10:43:36.464Z,1535
2016-10-19T10:44:36.474Z,1450
2016-10-19T10:45:36.468Z,1475
2016-10-19T10:46:36.492Z,1305
2016-10-19T10:47:36.434Z,1385
2016-10-19T10:48:36.389Z,1345
2016-10-19T10:49:36.423Z,1315
2016-10-19T10:50:36.441Z,1380
2016-10-19T10:51:36.368Z,1395
2016-10-19T10:52:36.368Z,1295
2016-10-19T10:53:36.367Z,1240
2016-10-19T10:54:36.352Z,1280
2016-10-19T10:55:36.471Z,1300
2016-10-19T10:56:36.236Z,1265
2016-10-19T10:57:36.304Z,1265
2016-10-19T10:58:36.284Z,1190
2016-10-19T10:59:36.514Z,1105
2016-10-19T11:00:36.210Z,1145
2016-10-19T11:01:36.251Z,1090
2016-10-19T11:02:36.174Z,1015
2016-10-19T11:03:36.157Z,1035
2016-10-19T11:04:36.151Z,1070
2016-10-19T11:05:36.147Z,1050
2016-10-19T11:06:36.142Z,1090
2016-10-19T11:07:36.348Z,1030
2016-10-19T11:08:36.294Z,1120
2016-10-19T11:09:36.089Z,1285
2016-10-19T11:10:36.073Z,1165
2016-10-19T11:11:36.145Z,1060
2016-10-19T11:12:36.013Z,1240
2016-10-19T11:13:36.038Z,1225
2016-10-19T11:14:35.949Z,1085
2016-10-19T11:15:35.936Z,1195
2016-10-19T11:16:36.193Z,1300
2016-10-19T11:17:35.899Z,1295
2016-10-19T11:18:35.929Z,1280
2016-10-19T11:19:35.878Z,1140
2016-10-19T11:20:35.870Z,1195
2016-10-19T11:21:35.817Z,1290
2016-10-19T11:22:35.820Z,1145
2016-10-19T11:23:35.816Z,1075
2016-10-19T11:24:35.844Z,1235
2016-10-19T11:25:35.802Z,1370
2016-10-19T11:26:35.753Z,1565
2016-10-19T11:27:35.692Z,1395
2016-10-19T11:28:35.723Z,1440
2016-10-19T11:29:35.698Z,1600
2016-10-19T11:30:35.665Z,1545
2016-10-19T11:31:35.663Z,1730
2016-10-19T11:32:35.653Z,1860
2016-10-19T11:33:35.662Z,2030
2016-10-19T11:34:35.812Z,1430
2016-10-19T11:35:35.780Z,1330
2016-10-19T11:36:35.759Z,1310
2016-10-19T11:37:35.769Z,1300
2016-10-19T11:38:35.601Z,1380
2016-10-19T11:39:35.502Z,1385
2016-10-19T11:40:35.493Z,1415
2016-10-19T11:41:35.531Z,1425
2016-10-19T11:42:35.460Z,1315
2016-10-19T11:43:35.482Z,1240
2016-10-19T11:44:35.497Z,1040
2016-10-19T11:45:35.468Z,1240
2016-10-19T11:46:35.388Z,1310
2016-10-19T11:47:35.383Z,1100
2016-10-19T11:48:35.373Z,1235
2016-10-19T11:49:35.376Z,1205
2016-10-19T11:50:35.359Z,1220
2016-10-19T11:51:35.365Z,1075
2016-10-19T11:52:35.309Z,1090
2016-10-19T11:53:35.280Z,1085
2016-10-19T11:54:35.265Z,935
2016-10-19T11:55:35.248Z,1000
2016-10-19T11:56:35.244Z,1440
2016-10-19T11:57:35.189Z,1210
2016-10-19T11:58:35.183Z,1435
2016-10-19T11:59:35.232Z,1250
2016-10-19T12:00:35.155Z,1080
2016-10-19T12:01:35.106Z,1040
2016-10-19T12:02:35.176Z,1290
2016-10-19T12:03:35.114Z,1155
2016-10-19T12:04:35.098Z,1015
2016-10-19T12:05:35.076Z,970
2016-10-19T12:06:35.059Z,1040
2016-10-19T12:07:35.025Z,965
2016-10-19T12:08:34.991Z,925
2016-10-19T12:09:35.004Z,885
2016-10-19T12:10:34.996Z,940
2016-10-19T12:11:34.952Z,990
2016-10-19T12:12:34.937Z,775
2016-10-19T12:13:34.942Z,690
2016-10-19T12:14:34.960Z,710
2016-10-19T12:15:34.827Z,685
2016-10-19T12:16:34.880Z,645
2016-10-19T12:17:34.856Z,660
2016-10-19T12:18:34.860Z,665
2016-10-19T12:19:34.822Z,605
2016-10-19T12:20:34.785Z,660
2016-10-19T12:21:34.771Z,635
2016-10-19T12:22:34.768Z,630
2016-10-19T12:23:34.842Z,710
2016-10-19T12:24:34.704Z,610
2016-10-19T12:25:34.694Z,690
2016-10-19T12:26:34.685Z,685
2016-10-19T12:27:34.641Z,655
2016-10-19T12:28:34.716Z,655
2016-10-19T12:29:34.626Z,710
2016-10-19T12:30:34.596Z,625
2016-10-19T12:31:34.589Z,530
2016-10-19T12:32:34.572Z,535
2016-10-19T12:33:34.587Z,565
2016-10-19T12:34:34.537Z,600
2016-10-19T12:35:34.581Z,585
2016-10-19T12:36:34.479Z,525
2016-10-19T12:37:34.498Z,655
2016-10-19T12:38:34.467Z,775
2016-10-19T12:39:34.435Z,805
2016-10-19T12:40:34.448Z,825
2016-10-19T12:41:34.442Z,820
2016-10-19T12:42:34.383Z,850
2016-10-19T12:43:34.377Z,820
2016-10-19T12:44:34.340Z,930
2016-10-19T12:45:34.400Z,920
2016-10-19T12:46:34.357Z,890
2016-10-19T12:47:34.279Z,880
2016-10-19T12:48:34.271Z,830
2016-10-19T12:49:34.232Z,895
2016-10-19T12:50:34.600Z,910
2016-10-19T12:51:34.254Z,820
2016-10-19T12:52:34.526Z,800
2016-10-19T12:53:34.230Z,850
2016-10-19T12:54:34.198Z,895
2016-10-19T12:55:34.194Z,805
2016-10-19T12:56:34.169Z,860
2016-10-19T12:57:34.159Z,855
2016-10-19T12:58:34.108Z,805
2016-10-19T12:59:34.120Z,845
2016-10-19T13:00:34.103Z,875
2016-10-19T13:01:34.061Z,975
2016-10-19T13:02:34.056Z,890
2016-10-19T13:03:34.045Z,750
2016-10-19T13:04:34.028Z,740
2016-10-19T13:05:34.063Z,800
2016-10-19T13:06:33.957Z,920
2016-10-19T13:07:33.951Z,890
2016-10-19T13:08:33.924Z,795
2016-10-19T13:09:33.958Z,760
2016-10-19T13:10:33.913Z,770
2016-10-19T13:11:33.924Z,750
2016-10-19T13:12:33.889Z,750
2016-10-19T13:13:33.855Z,810
2016-10-19T13:14:33.909Z,780
2016-10-19T13:15:34.007Z,805
2016-10-19T13:16:33.814Z,850
2016-10-19T13:17:33.831Z,875
2016-10-19T13:18:33.812Z,840
2016-10-19T13:19:33.761Z,785
2016-10-19T13:20:33.807Z,745
2016-10-19T13:21:33.787Z,720
2016-10-19T13:22:33.738Z,650
2016-10-19T13:23:33.713Z,675
2016-10-19T13:24:33.686Z,695
2016-10-19T13:25:33.657Z,625
2016-10-19T13:26:33.720Z,595
2016-10-19T13:27:33.608Z,655
2016-10-19T13:28:33.652Z,635
2016-10-19T13:29:33.651Z,690
2016-10-19T13:30:33.598Z,725
2016-10-19T13:31:33.580Z,690
2016-10-19T13:32:33.584Z,735
2016-10-19T13:33:33.563Z,695
2016-10-19T13:34:33.525Z,745
2016-10-19T13:35:33.549Z,785
2016-10-19T13:36:33.560Z,835
2016-10-19T13:37:33.559Z,915
2016-10-19T13:38:33.456Z,840
2016-10-19T13:39:33.480Z,800
2016-10-19T13:40:33.731Z,805
2016-10-19T13:41:33.401Z,760
2016-10-19T13:42:33.421Z,745
2016-10-19T13:43:33.391Z,710
2016-10-19T13:44:33.428Z,625
2016-10-19T13:45:33.359Z,615
2016-10-19T13:46:33.330Z,615
2016-10-19T13:47:33.320Z,550
2016-10-19T13:48:33.337Z,555
2016-10-19T13:49:33.292Z,555
2016-10-19T13:50:33.237Z,595
2016-10-19T13:51:33.268Z,660
2016-10-19T13:52:33.215Z,630
2016-10-19T13:53:33.213Z,555
2016-10-19T13:54:33.238Z,640
2016-10-19T13:55:33.240Z,705
2016-10-19T13:56:33.305Z,655
2016-10-19T13:57:33.167Z,580
2016-10-19T13:58:33.148Z,555
2016-10-19T13:59:33.111Z,570
2016-10-19T14:00:33.110Z,525
2016-10-19T14:01:33.085Z,495
2016-10-19T14:02:33.263Z,475
2016-10-19T14:03:33.403Z,625
2016-10-19T14:04:33.051Z,735
2016-10-19T14:05:32.997Z,760
2016-10-19T14:06:33.081Z,570
2016-10-19T14:07:33.046Z,620
2016-10-19T14:08:33.007Z,630
2016-10-19T14:09:32.991Z,550
2016-10-19T14:10:32.914Z,560